Time,TemperatureF,DewpointF,PressureIn,WindDirection,WindDirectionDegrees,WindSpeedMPH,WindSpeedGustMPH,Humidity,HourlyPrecipIn,Conditions,Clouds,dailyrainin,SoftwareType,DateUTC
2013-05-19 00:09:00,61.9,51.6,30.07,East,90,2.7,-999.0,69,-99.99,,,0.00,Acu-Link.com,2013-05-19 04:09:00,
2013-05-19 00:24:00,61.7,51.4,30.07,SE,135,3.2,-999.0,69,-99.99,,,0.00,Acu-Link.com,2013-05-19 04:24:00,
2013-05-19 00:39:00,61.5,51.6,30.07,ESE,112,12.5,-999.0,70,-99.99,,,0.00,Acu-Link.com,2013-05-19 04:39:00,
2013-05-19 00:54:00,61.0,51.9,30.07,North,0,2.2,-999.0,72,-99.99,,,0.00,Acu-Link.com,2013-05-19 04:54:00,
2013-05-19 01:09:00,60.8,52.1,30.06,East,90,4.7,-999.0,73,-99.99,,,0.00,Acu-Link.com,2013-05-19 05:09:00,
2013-05-19 01:24:00,60.6,51.9,30.05,East,90,4.7,-999.0,73,-99.99,,,0.00,Acu-Link.com,2013-05-19 05:24:00,
2013-05-19 01:39:00,60.4,51.7,30.04,East,90,5.3,-999.0,73,-99.99,,,0.00,Acu-Link.com,2013-05-19 05:39:00,
2013-05-19 01:54:00,60.1,51.8,30.04,East,90,5.3,-999.0,74,-99.99,,,0.00,Acu-Link.com,2013-05-19 05:54:00,
2013-05-19 02:09:00,60.1,51.8,30.04,South,180,3.2,-999.0,74,-99.99,,,0.00,Acu-Link.com,2013-05-19 06:09:00,
2013-05-19 02:25:00,59.9,51.6,30.03,NW,315,2.2,-999.0,74,-99.99,,,0.00,Acu-Link.com,2013-05-19 06:25:00,
2013-05-19 02:40:00,59.7,51.8,30.04,ESE,112,1.7,-999.0,75,-99.99,,,0.00,Acu-Link.com,2013-05-19 06:40:00,
2013-05-19 02:55:00,59.5,51.9,30.03,ESE,112,6.8,-999.0,76,-99.99,,,0.00,Acu-Link.com,2013-05-19 06:55:00,
2013-05-19 03:10:00,59.4,52.2,30.04,ESE,112,4.7,-999.0,77,-99.99,,,0.00,Acu-Link.com,2013-05-19 07:10:00,
2013-05-19 03:25:00,59.2,52.0,30.03,ESE,112,4.7,-999.0,77,-99.99,,,0.00,Acu-Link.com,2013-05-19 07:25:00,
2013-05-19 03:40:00,59.0,52.1,30.04,ESE,112,4.7,-999.0,78,-99.99,,,0.00,Acu-Link.com,2013-05-19 07:40:00,
2013-05-19 03:55:00,58.8,52.3,30.03,ESE,112,5.3,-999.0,79,-99.99,,,0.00,Acu-Link.com,2013-05-19 07:55:00,
2013-05-19 04:10:00,58.6,52.4,30.03,East,90,5.3,-999.0,80,-99.99,,,0.00,Acu-Link.com,2013-05-19 08:10:00,
2013-05-19 04:26:00,58.5,52.4,30.03,East,90,5.3,-999.0,80,-99.99,,,0.00,Acu-Link.com,2013-05-19 08:26:00,
2013-05-19 04:41:00,58.1,52.6,30.03,East,90,4.2,-999.0,82,-99.99,,,0.00,Acu-Link.com,2013-05-19 08:41:00,
2013-05-19 04:56:00,58.1,53.0,30.03,ENE,67,5.3,-999.0,83,-99.99,,,0.00,Acu-Link.com,2013-05-19 08:56:00,
2013-05-19 05:11:00,57.9,52.8,30.03,ENE,67,2.7,-999.0,83,-99.99,,,0.00,Acu-Link.com,2013-05-19 09:11:00,
2013-05-19 05:26:00,57.9,52.8,30.03,ESE,112,3.7,-999.0,83,-99.99,,,0.00,Acu-Link.com,2013-05-19 09:26:00,
2013-05-19 05:41:00,57.9,52.8,30.04,NNW,337,3.2,-999.0,83,-99.99,,,0.00,Acu-Link.com,2013-05-19 09:41:00,
2013-05-19 05:56:00,57.9,52.8,30.04,ESE,112,4.2,-999.0,83,-99.99,,,0.00,Acu-Link.com,2013-05-19 09:56:00,
2013-05-19 06:12:00,57.9,52.8,30.04,NNE,22,3.7,-999.0,83,-99.99,,,0.00,Acu-Link.com,2013-05-19 10:12:00,
2013-05-19 06:27:00,57.9,53.1,30.04,SE,135,2.7,-999.0,84,-99.99,,,0.00,Acu-Link.com,2013-05-19 10:27:00,
2013-05-19 06:42:00,57.9,53.1,30.05,NE,45,2.7,-999.0,84,-99.99,,,0.00,Acu-Link.com,2013-05-19 10:42:00,
2013-05-19 06:57:00,58.1,53.3,30.05,East,90,2.2,-999.0,84,-99.99,,,0.00,Acu-Link.com,2013-05-19 10:57:00,
2013-05-19 07:12:00,58.3,53.5,30.06,ESE,112,1.7,-999.0,84,-99.99,,,0.00,Acu-Link.com,2013-05-19 11:12:00,
2013-05-19 07:27:00,58.5,53.4,30.06,SSE,157,1.7,-999.0,83,-99.99,,,0.00,Acu-Link.com,2013-05-19 11:27:00,
2013-05-19 07:42:00,58.6,53.1,30.06,ESE,112,5.3,-999.0,82,-99.99,,,0.00,Acu-Link.com,2013-05-19 11:42:00,
2013-05-19 07:58:00,58.8,53.3,30.07,ESE,112,3.7,-999.0,82,-99.99,,,0.00,Acu-Link.com,2013-05-19 11:58:00,
2013-05-19 08:13:00,59.0,53.5,30.07,SSE,157,1.7,-999.0,82,-99.99,,,0.00,Acu-Link.com,2013-05-19 12:13:00,
2013-05-19 08:28:00,59.0,53.5,30.07,East,90,3.7,-999.0,82,-99.99,,,0.00,Acu-Link.com,2013-05-19 12:28:00,
2013-05-19 08:43:00,59.4,53.9,30.07,ENE,67,4.2,-999.0,82,-99.99,,,0.00,Acu-Link.com,2013-05-19 12:43:00,
2013-05-19 08:58:00,59.9,54.1,30.07,East,90,3.2,-999.0,81,-99.99,,,0.00,Acu-Link.com,2013-05-19 12:58:00,
2013-05-19 09:13:00,60.1,53.9,30.08,ESE,112,4.2,-999.0,80,-99.99,,,0.00,Acu-Link.com,2013-05-19 13:13:00,
2013-05-19 09:28:00,60.1,53.9,30.07,East,90,5.8,-999.0,80,-99.99,,,0.00,Acu-Link.com,2013-05-19 13:28:00,
2013-05-19 09:43:00,60.3,54.1,30.07,ESE,112,3.2,-999.0,80,-99.99,,,0.00,Acu-Link.com,2013-05-19 13:43:00,
2013-05-19 09:59:00,60.4,54.2,30.07,ENE,67,2.7,-999.0,80,-99.99,,,0.00,Acu-Link.com,2013-05-19 13:59:00,
2013-05-19 10:14:00,60.6,54.0,30.08,East,90,4.7,-999.0,79,-99.99,,,0.00,Acu-Link.com,2013-05-19 14:14:00,
2013-05-19 10:29:00,60.6,54.0,30.07,East,90,4.7,-999.0,79,-99.99,,,0.00,Acu-Link.com,2013-05-19 14:29:00,
2013-05-19 10:44:00,61.0,54.4,30.07,North,0,3.2,-999.0,79,-99.99,,,0.00,Acu-Link.com,2013-05-19 14:44:00,
2013-05-19 10:59:00,61.7,54.8,30.07,ENE,67,5.8,-999.0,78,-99.99,,,0.00,Acu-Link.com,2013-05-19 14:59:00,
2013-05-19 11:14:00,62.8,54.8,30.06,ENE,67,3.7,-999.0,75,-99.99,,,0.00,Acu-Link.com,2013-05-19 15:14:00,
2013-05-19 11:29:00,63.0,54.9,30.06,East,90,6.8,-999.0,75,-99.99,,,0.00,Acu-Link.com,2013-05-19 15:29:00,
2013-05-19 11:44:00,63.1,54.7,30.06,ENE,67,3.2,-999.0,74,-99.99,,,0.00,Acu-Link.com,2013-05-19 15:44:00,
2013-05-19 11:59:00,64.0,54.8,30.05,ESE,112,4.7,-999.0,72,-99.99,,,0.00,Acu-Link.com,2013-05-19 15:59:00,
2013-05-19 12:15:00,64.0,54.4,30.04,ESE,112,3.7,-999.0,71,-99.99,,,0.00,Acu-Link.com,2013-05-19 16:15:00,
2013-05-19 12:30:00,64.8,55.2,30.04,East,90,2.7,-999.0,71,-99.99,,,0.00,Acu-Link.com,2013-05-19 16:30:00,
2013-05-19 12:45:00,64.6,55.0,30.04,SE,135,2.7,-999.0,71,-99.99,,,0.00,Acu-Link.com,2013-05-19 16:45:00,
2013-05-19 13:00:00,65.1,54.7,30.03,ENE,67,6.3,-999.0,69,-99.99,,,0.00,Acu-Link.com,2013-05-19 17:00:00,
2013-05-19 13:15:00,64.9,54.9,30.03,ESE,112,3.7,-999.0,70,-99.99,,,0.00,Acu-Link.com,2013-05-19 17:15:00,
2013-05-19 13:30:00,64.9,54.9,30.02,ESE,112,4.7,-999.0,70,-99.99,,,0.00,Acu-Link.com,2013-05-19 17:30:00,
2013-05-19 13:45:00,64.9,55.3,30.02,ESE,112,3.2,-999.0,71,-99.99,,,0.00,Acu-Link.com,2013-05-19 17:45:00,
2013-05-19 14:00:00,64.6,55.0,30.01,ENE,67,4.7,-999.0,71,-99.99,,,0.00,Acu-Link.com,2013-05-19 18:00:00,
2013-05-19 14:15:00,64.8,55.6,30.00,ESE,112,4.7,-999.0,72,-99.99,,,0.00,Acu-Link.com,2013-05-19 18:15:00,
2013-05-19 14:30:00,65.1,55.8,30.00,ENE,67,2.2,-999.0,72,-99.99,,,0.00,Acu-Link.com,2013-05-19 18:30:00,
2013-05-19 14:46:00,65.3,56.0,29.99,ESE,112,1.7,-999.0,72,-99.99,,,0.00,Acu-Link.com,2013-05-19 18:46:00,
2013-05-19 15:01:00,65.1,55.8,29.98,ESE,112,4.7,-999.0,72,-99.99,,,0.00,Acu-Link.com,2013-05-19 19:01:00,
2013-05-19 15:16:00,65.1,55.8,29.98,ESE,112,4.2,-999.0,72,-99.99,,,0.00,Acu-Link.com,2013-05-19 19:16:00,
2013-05-19 15:31:00,65.7,56.0,29.97,ESE,112,6.8,-999.0,71,-99.99,,,0.00,Acu-Link.com,2013-05-19 19:31:00,
2013-05-19 15:46:00,65.7,56.0,29.97,ESE,112,5.8,-999.0,71,-99.99,,,0.00,Acu-Link.com,2013-05-19 19:46:00,
2013-05-19 16:01:00,65.3,56.0,29.97,ESE,112,4.2,-999.0,72,-99.99,,,0.00,Acu-Link.com,2013-05-19 20:01:00,
2013-05-19 16:16:00,64.9,56.0,29.97,East,90,6.8,-999.0,73,-99.99,,,0.00,Acu-Link.com,2013-05-19 20:16:00,
2013-05-19 16:31:00,64.8,56.3,29.97,SE,135,3.2,-999.0,74,-99.99,,,0.00,Acu-Link.com,2013-05-19 20:31:00,
2013-05-19 16:47:00,64.6,56.1,29.97,ESE,112,4.2,-999.0,74,-99.99,,,0.00,Acu-Link.com,2013-05-19 20:47:00,
2013-05-19 17:02:00,64.6,56.1,29.96,SE,135,3.7,-999.0,74,-99.99,,,0.00,Acu-Link.com,2013-05-19 21:02:00,
2013-05-19 17:17:00,64.4,55.9,29.96,ESE,112,5.3,-999.0,74,-99.99,,,0.00,Acu-Link.com,2013-05-19 21:17:00,
2013-05-19 17:32:00,64.4,56.3,29.97,ESE,112,3.7,-999.0,75,-99.99,,,0.00,Acu-Link.com,2013-05-19 21:32:00,
2013-05-19 17:47:00,64.2,56.5,29.97,ESE,112,4.2,-999.0,76,-99.99,,,0.00,Acu-Link.com,2013-05-19 21:47:00,
2013-05-19 18:02:00,64.0,56.3,29.96,ESE,112,7.3,-999.0,76,-99.99,,,0.00,Acu-Link.com,2013-05-19 22:02:00,
2013-05-19 18:17:00,63.7,56.3,29.96,ESE,112,4.7,-999.0,77,-99.99,,,0.00,Acu-Link.com,2013-05-19 22:17:00,
2013-05-19 18:33:00,63.3,56.7,29.97,ESE,112,4.2,-999.0,79,-99.99,,,0.00,Acu-Link.com,2013-05-19 22:33:00,
2013-05-19 18:48:00,63.3,56.7,29.96,NE,45,3.2,-999.0,79,-99.99,,,0.00,Acu-Link.com,2013-05-19 22:48:00,
2013-05-19 19:03:00,63.1,56.5,29.97,NE,45,3.7,-999.0,79,-99.99,,,0.00,Acu-Link.com,2013-05-19 23:03:00,
2013-05-19 19:18:00,63.1,56.5,29.97,ENE,67,2.7,-999.0,79,-99.99,,,0.00,Acu-Link.com,2013-05-19 23:18:00,
2013-05-19 19:33:00,62.8,56.9,29.98,NNE,22,5.3,-999.0,81,-99.99,,,0.00,Acu-Link.com,2013-05-19 23:33:00,
2013-05-19 19:48:00,62.4,56.8,29.97,NNE,22,3.7,-999.0,82,-99.99,,,0.00,Acu-Link.com,2013-05-19 23:48:00,
2013-05-19 20:03:00,62.4,56.8,29.96,ENE,67,2.2,-999.0,82,-99.99,,,0.00,Acu-Link.com,2013-05-20 00:03:00,
2013-05-19 20:18:00,62.2,56.6,29.96,NNW,337,4.2,-999.0,82,-99.99,,,0.00,Acu-Link.com,2013-05-20 00:18:00,
2013-05-19 20:33:00,62.2,57.0,29.97,NNW,337,4.2,-999.0,83,-99.99,,,0.00,Acu-Link.com,2013-05-20 00:33:00,
2013-05-19 20:49:00,62.1,56.9,29.97,ESE,112,3.7,-999.0,83,-99.99,,,0.00,Acu-Link.com,2013-05-20 00:49:00,
2013-05-19 21:04:00,61.9,57.0,29.97,East,90,3.2,-999.0,84,-99.99,,,0.00,Acu-Link.com,2013-05-20 01:04:00,
2013-05-19 21:19:00,61.9,57.0,29.97,SSE,157,0.0,-999.0,84,-99.99,,,0.00,Acu-Link.com,2013-05-20 01:19:00,
2013-05-19 21:34:00,62.1,57.2,29.97,SE,135,1.7,-999.0,84,-99.99,,,0.00,Acu-Link.com,2013-05-20 01:34:00,
2013-05-19 21:49:00,62.1,57.2,29.98,ESE,112,4.7,-999.0,84,-99.99,,,0.00,Acu-Link.com,2013-05-20 01:49:00,
2013-05-19 22:04:00,62.1,56.9,29.98,ESE,112,2.7,-999.0,83,-99.99,,,0.00,Acu-Link.com,2013-05-20 02:04:00,
2013-05-19 22:19:00,62.4,56.8,29.98,ESE,112,2.2,-999.0,82,-99.99,,,0.00,Acu-Link.com,2013-05-20 02:19:00,
2013-05-19 22:34:00,63.1,57.2,29.98,ESE,112,0.0,-999.0,81,-99.99,,,0.00,Acu-Link.com,2013-05-20 02:34:00,
2013-05-19 22:49:00,63.1,57.2,29.98,NNE,22,3.2,-999.0,81,-99.99,,,0.00,Acu-Link.com,2013-05-20 02:49:00,
2013-05-19 23:05:00,63.0,57.1,29.98,SSW,202,0.0,-999.0,81,-99.99,,,0.00,Acu-Link.com,2013-05-20 03:05:00,
2013-05-19 23:20:00,62.8,56.9,29.97,WNW,292,2.2,-999.0,81,-99.99,,,0.00,Acu-Link.com,2013-05-20 03:20:00,
2013-05-19 23:35:00,62.6,57.0,29.97,South,180,1.7,-999.0,82,-99.99,,,0.00,Acu-Link.com,2013-05-20 03:35:00,
2013-05-19 23:50:00,62.4,56.8,29.97,ESE,112,1.7,-999.0,82,-99.99,,,0.00,Acu-Link.com,2013-05-20 03:50:00,